Time;durP1;ratioP1;P1;durP2;ratioP2;P2;SDS_P1;SDS_P2;PMS_P1;PMS_P2;Temp;Humidity;BMP_temperature;BMP_pressure;BME280_temperature;BME280_humidity;BME280_pressure;Samples;Min_cycle;Max_cycle;Signal;HPM_P1;HPM_P2
2023/04/08 00:01:32;;;;;;;1.50;1.10;;;9.40;98.20;;;;;;5018043;28;20510;-77
2023/04/08 00:03:58;;;;;;;1.50;1.10;;;9.40;98.20;;;;;;5029971;28;20475;-77
2023/04/08 00:06:27;;;;;;;1.50;1.20;;;9.40;98.20;;;;;;5024010;28;20823;-77
2023/04/08 00:08:53;;;;;;;1.50;1.10;;;9.40;98.20;;;;;;5039745;28;21024;-78
2023/04/08 00:11:20;;;;;;;1.50;1.20;;;9.40;98.20;;;;;;5020915;28;20489;-77
2023/04/08 00:13:47;;;;;;;1.50;1.10;;;9.40;98.20;;;;;;5033297;28;20973;-78
2023/04/08 00:16:14;;;;;;;1.50;1.10;;;9.40;98.20;;;;;;5021930;28;20481;-77
2023/04/08 00:18:41;;;;;;;1.50;1.10;;;9.40;98.20;;;;;;5035255;28;20502;-79
2023/04/08 00:21:08;;;;;;;1.50;1.00;;;9.40;98.20;;;;;;5020478;28;20487;-77
2023/04/08 00:23:36;;;;;;;1.50;1.10;;;9.40;98.20;;;;;;5029882;28;20951;-77
2023/04/08 00:26:03;;;;;;;1.50;1.10;;;9.40;98.20;;;;;;5021075;28;20463;-77
2023/04/08 00:28:32;;;;;;;1.50;1.10;;;9.40;98.20;;;;;;5036743;28;20455;-77
2023/04/08 00:30:59;;;;;;;1.50;1.10;;;9.40;98.20;;;;;;5019399;28;20475;-77
2023/04/08 00:33:26;;;;;;;1.50;1.10;;;9.40;98.20;;;;;;5039419;28;20972;-77
2023/04/08 00:35:53;;;;;;;1.50;1.10;;;9.40;98.20;;;;;;5018436;28;20463;-76
2023/04/08 00:38:19;;;;;;;1.50;1.10;;;9.40;98.20;;;;;;5034386;28;20934;-75
2023/04/08 00:40:48;;;;;;;1.50;1.10;;;9.30;98.20;;;;;;5022544;28;21001;-78
2023/04/08 00:43:15;;;;;;;1.50;1.10;;;9.30;98.20;;;;;;5025121;28;20472;-75
2023/04/08 00:45:42;;;;;;;1.50;1.10;;;9.30;98.20;;;;;;5026960;28;20582;-78
2023/04/08 00:48:09;;;;;;;1.50;1.10;;;9.30;98.20;;;;;;5013486;28;20476;-78
2023/04/08 00:53:08;;;;;;;1.50;1.10;;;9.30;98.20;;;;;;5009067;28;20574;-77
2023/04/08 00:55:35;;;;;;;1.50;1.10;;;9.30;98.20;;;;;;5012262;28;20499;-76
2023/04/08 00:58:03;;;;;;;1.50;1.10;;;9.40;98.20;;;;;;5020091;28;20617;-76
2023/04/08 01:00:31;;;;;;;1.50;1.13;;;9.30;98.20;;;;;;5026894;28;20460;-77
2023/04/08 01:03:05;;;;;;;1.50;1.10;;;9.30;98.20;;;;;;4977699;28;20481;-76
2023/04/08 01:05:40;;;;;;;1.50;1.10;;;9.30;98.20;;;;;;5007283;28;20899;-76
2023/04/08 01:08:08;;;;;;;1.50;1.10;;;9.40;98.20;;;;;;4980143;28;20965;-77
2023/04/08 01:10:40;;;;;;;1.50;1.10;;;9.30;98.20;;;;;;5007228;28;20464;-77
2023/04/08 01:13:10;;;;;;;1.50;1.10;;;9.30;98.20;;;;;;4978474;28;21069;-76
2023/04/08 01:15:40;;;;;;;1.50;1.10;;;9.30;98.20;;;;;;5010918;28;20459;-77
2023/04/08 01:18:08;;;;;;;2.40;2.20;;;9.30;98.20;;;;;;4982343;28;20512;-77
2023/04/08 01:20:36;;;;;;;1.50;1.10;;;9.30;98.20;;;;;;5009953;28;20587;-76
2023/04/08 01:23:08;;;;;;;1.50;1.10;;;9.30;98.20;;;;;;4981684;28;21023;-77
2023/04/08 01:25:37;;;;;;;1.50;1.10;;;9.30;98.20;;;;;;5009334;28;20464;-76
2023/04/08 01:28:09;;;;;;;1.53;1.20;;;9.30;98.20;;;;;;4988081;28;20580;-78
2023/04/08 01:30:39;;;;;;;1.50;1.13;;;9.30;98.20;;;;;;5001103;28;20460;-78
2023/04/08 01:33:07;;;;;;;1.50;1.10;;;9.30;98.20;;;;;;5000185;28;20488;-76
2023/04/08 01:35:35;;;;;;;1.50;1.10;;;9.30;98.20;;;;;;5009944;28;20469;-78
2023/04/08 01:38:03;;;;;;;1.50;1.10;;;9.30;98.20;;;;;;4996387;28;20974;-76
2023/04/08 01:40:30;;;;;;;1.50;1.10;;;9.30;98.20;;;;;;5008091;28;21032;-76
2023/04/08 01:42:58;;;;;;;1.50;1.17;;;9.30;98.20;;;;;;4979571;28;20485;-76
2023/04/08 01:45:28;;;;;;;1.50;1.10;;;9.30;98.20;;;;;;5012909;28;20469;-76
2023/04/08 01:47:56;;;;;;;1.50;1.20;;;9.30;98.20;;;;;;4984861;28;20866;-76
2023/04/08 01:50:24;;;;;;;1.50;1.10;;;9.30;98.20;;;;;;5015278;28;20846;-76
2023/04/08 01:52:52;;;;;;;1.50;1.10;;;9.30;98.20;;;;;;4981815;28;20489;-76
2023/04/08 01:55:20;;;;;;;1.50;1.10;;;9.30;98.20;;;;;;5013084;28;20468;-77
2023/04/08 01:57:50;;;;;;;1.50;1.10;;;9.30;98.20;;;;;;4997873;28;20490;-78
2023/04/08 02:00:20;;;;;;;1.50;1.10;;;9.30;98.20;;;;;;5009121;28;20472;-77
2023/04/08 02:02:50;;;;;;;1.53;1.10;;;9.30;98.20;;;;;;4985432;28;20779;-76
2023/04/08 02:05:16;;;;;;;1.57;1.30;;;9.30;98.20;;;;;;4986017;28;20473;-77
2023/04/08 02:07:44;;;;;;;1.50;1.10;;;9.30;98.20;;;;;;4981932;28;20504;-76
2023/04/08 02:10:11;;;;;;;1.50;1.10;;;9.30;98.20;;;;;;4993446;28;20475;-77
2023/04/08 02:12:39;;;;;;;1.53;1.10;;;9.30;98.20;;;;;;4978687;28;20922;-76
2023/04/08 02:15:06;;;;;;;1.50;1.10;;;9.30;98.20;;;;;;4992202;28;20478;-76
2023/04/08 02:17:39;;;;;;;1.50;1.20;;;9.30;98.20;;;;;;4989746;28;20476;-76
2023/04/08 02:20:10;;;;;;;1.50;1.10;;;9.30;98.20;;;;;;4986047;28;20460;-77
2023/04/08 02:22:47;;;;;;;1.50;1.20;;;9.30;98.20;;;;;;4977414;28;20885;-76
2023/04/08 02:25:16;;;;;;;1.50;1.10;;;9.30;98.20;;;;;;4991186;28;21112;-76
2023/04/08 02:27:46;;;;;;;1.50;1.20;;;9.30;98.20;;;;;;4985995;28;20488;-77
2023/04/08 02:30:13;;;;;;;1.50;1.00;;;9.30;98.20;;;;;;4991681;28;20961;-76
2023/04/08 02:32:41;;;;;;;1.50;1.07;;;9.30;98.20;;;;;;4983989;28;21002;-77
2023/04/08 02:35:12;;;;;;;1.50;1.10;;;9.30;98.20;;;;;;4989897;28;20462;-76
2023/04/08 02:37:39;;;;;;;1.50;1.20;;;9.30;98.20;;;;;;4984975;28;20476;-77
2023/04/08 02:40:27;;;;;;;1.50;1.10;;;9.30;98.20;;;;;;4987733;28;20499;-77
2023/04/08 02:42:55;;;;;;;1.50;1.13;;;9.30;98.20;;;;;;4974936;28;20866;-76
2023/04/08 02:45:22;;;;;;;1.50;1.20;;;9.30;98.20;;;;;;4989765;28;21027;-77
2023/04/08 02:47:49;;;;;;;1.60;1.47;;;9.30;98.20;;;;;;4981426;28;20488;-76
2023/04/08 02:50:17;;;;;;;1.50;1.10;;;9.30;98.20;;;;;;4993855;28;21042;-76
2023/04/08 02:52:44;;;;;;;1.50;1.10;;;9.30;98.20;;;;;;4980237;28;22365;-76
2023/04/08 02:55:11;;;;;;;1.50;1.10;;;9.30;98.20;;;;;;4989153;28;20508;-75
2023/04/08 02:57:39;;;;;;;1.50;1.10;;;9.30;98.20;;;;;;4982273;28;20485;-76
2023/04/08 03:00:07;;;;;;;1.53;1.20;;;9.30;98.20;;;;;;4997587;28;20468;-76
2023/04/08 03:02:34;;;;;;;1.57;1.20;;;9.30;98.20;;;;;;4981214;28;20492;-75
2023/04/08 03:05:00;;;;;;;1.50;1.20;;;9.30;98.20;;;;;;4991772;28;20468;-75
2023/04/08 03:07:28;;;;;;;1.50;1.20;;;9.30;98.20;;;;;;4979732;28;20473;-76
2023/04/08 03:09:55;;;;;;;1.50;1.10;;;9.30;98.20;;;;;;4993327;28;20456;-76
2023/04/08 03:12:22;;;;;;;1.50;1.10;;;9.30;98.20;;;;;;4973970;28;20819;-76
2023/04/08 03:14:49;;;;;;;1.57;1.20;;;9.30;98.20;;;;;;4992039;28;20459;-76
2023/04/08 03:17:16;;;;;;;1.50;1.10;;;9.30;98.20;;;;;;4985857;28;20488;-76
2023/04/08 03:19:43;;;;;;;1.50;1.10;;;9.30;98.20;;;;;;4988862;28;20463;-76
2023/04/08 03:22:10;;;;;;;1.50;1.10;;;9.30;98.20;;;;;;4978857;28;20485;-76
2023/04/08 03:24:38;;;;;;;1.50;1.10;;;9.30;98.20;;;;;;4991044;28;20905;-76
2023/04/08 03:27:05;;;;;;;1.50;1.20;;;9.30;98.20;;;;;;4979845;28;20477;-76
2023/04/08 03:29:32;;;;;;;1.50;1.10;;;9.30;98.20;;;;;;4988556;28;20467;-76
2023/04/08 03:31:59;;;;;;;1.50;1.20;;;9.30;98.20;;;;;;4978768;28;20708;-76
2023/04/08 03:34:25;;;;;;;1.50;1.20;;;9.30;98.20;;;;;;4985966;28;20466;-76
2023/04/08 03:36:52;;;;;;;1.50;1.20;;;9.30;98.20;;;;;;4980539;28;20495;-76
2023/04/08 03:39:19;;;;;;;1.50;1.20;;;9.30;98.20;;;;;;4989436;28;20760;-77
2023/04/08 03:41:47;;;;;;;1.50;1.10;;;9.30;98.20;;;;;;4975080;28;20555;-77
2023/04/08 03:44:14;;;;;;;1.50;1.10;;;9.30;98.20;;;;;;4987626;28;20476;-77
2023/04/08 03:46:41;;;;;;;1.50;1.10;;;9.30;98.20;;;;;;4979586;28;20580;-79
2023/04/08 03:49:08;;;;;;;1.50;1.10;;;9.30;98.20;;;;;;5000886;28;20875;-77
2023/04/08 03:51:34;;;;;;;1.50;1.10;;;9.30;98.20;;;;;;4992015;28;20492;-77
2023/04/08 03:54:01;;;;;;;1.50;1.20;;;9.30;98.20;;;;;;4998366;28;20460;-78
2023/04/08 03:56:28;;;;;;;1.50;1.10;;;9.30;98.20;;;;;;4993685;28;20485;-77
2023/04/08 03:58:56;;;;;;;1.50;1.20;;;9.30;98.20;;;;;;4998804;28;20559;-77
2023/04/08 04:01:23;;;;;;;1.50;1.10;;;9.30;98.20;;;;;;4996452;28;20482;-79
2023/04/08 04:03:49;;;;;;;1.50;1.10;;;9.20;98.20;;;;;;5004058;28;20480;-78
2023/04/08 04:06:16;;;;;;;1.50;1.10;;;9.20;98.20;;;;;;4995952;28;20477;-78
2023/04/08 04:08:43;;;;;;;1.50;1.10;;;9.20;98.20;;;;;;4996444;28;20468;-78
2023/04/08 04:11:10;;;;;;;1.50;1.03;;;9.30;98.20;;;;;;4994701;28;20890;-77
2023/04/08 04:13:36;;;;;;;1.50;1.20;;;9.30;98.20;;;;;;4995249;28;20817;-79
2023/04/08 04:16:05;;;;;;;1.50;1.13;;;9.30;98.20;;;;;;4996505;28;20958;-79
2023/04/08 04:18:32;;;;;;;1.50;1.10;;;9.30;98.20;;;;;;4993130;28;20496;-77
2023/04/08 04:20:58;;;;;;;1.50;1.10;;;9.30;98.20;;;;;;4997602;28;20504;-79
2023/04/08 04:23:25;;;;;;;1.50;1.10;;;9.30;98.20;;;;;;4991604;28;20484;-77
2023/04/08 04:25:52;;;;;;;1.50;1.10;;;9.30;98.20;;;;;;5000022;28;20465;-78
2023/04/08 04:28:19;;;;;;;1.50;1.10;;;9.30;98.20;;;;;;4997661;28;20959;-79
2023/04/08 04:30:45;;;;;;;1.50;1.10;;;9.30;98.20;;;;;;5006361;28;20471;-79
2023/04/08 04:33:13;;;;;;;1.50;1.20;;;9.30;98.20;;;;;;4991720;28;20472;-77
2023/04/08 04:35:40;;;;;;;1.50;1.13;;;9.30;98.20;;;;;;5010801;28;20848;-78
2023/04/08 04:38:11;;;;;;;1.53;1.20;;;9.30;98.20;;;;;;4981720;28;20870;-77
2023/04/08 04:40:38;;;;;;;1.50;1.20;;;9.30;98.20;;;;;;5009451;28;20838;-79
2023/04/08 04:43:05;;;;;;;1.50;1.10;;;9.20;98.20;;;;;;4988565;28;20533;-78
2023/04/08 04:45:32;;;;;;;1.50;1.10;;;9.20;98.20;;;;;;5011354;28;20471;-77
2023/04/08 04:47:59;;;;;;;1.50;1.10;;;9.10;98.20;;;;;;4983459;28;20484;-79
2023/04/08 04:50:27;;;;;;;1.50;1.10;;;9.10;98.20;;;;;;5016064;28;20875;-81
2023/04/08 04:52:54;;;;;;;1.50;1.10;;;9.00;98.20;;;;;;4983619;28;20575;-76
2023/04/08 04:55:21;;;;;;;1.60;1.20;;;8.90;98.20;;;;;;5011744;28;20483;-78
2023/04/08 04:57:48;;;;;;;1.53;1.10;;;8.80;98.20;;;;;;4983782;28;20539;-77
2023/04/08 05:00:15;;;;;;;1.50;1.20;;;8.80;98.20;;;;;;5010426;28;20471;-77
2023/04/08 05:02:42;;;;;;;1.60;1.27;;;8.70;98.20;;;;;;4981610;28;20912;-77
2023/04/08 05:05:09;;;;;;;1.53;1.20;;;8.70;98.20;;;;;;5008891;28;20834;-77
2023/04/08 05:07:38;;;;;;;1.60;1.20;;;8.60;98.20;;;;;;4985487;28;20495;-78
2023/04/08 05:10:06;;;;;;;1.50;1.10;;;8.60;98.20;;;;;;5007868;28;20463;-77
2023/04/08 05:12:33;;;;;;;1.60;1.40;;;8.60;98.20;;;;;;4984187;28;20477;-78
2023/04/08 05:14:59;;;;;;;1.60;1.20;;;8.60;98.20;;;;;;5006792;28;20857;-77
2023/04/08 05:17:26;;;;;;;1.57;1.17;;;8.60;98.20;;;;;;4986532;28;20528;-77
2023/04/08 05:19:53;;;;;;;1.53;1.10;;;8.70;98.20;;;;;;5004244;28;20474;-77
2023/04/08 05:22:20;;;;;;;1.60;1.20;;;8.70;98.20;;;;;;4986192;28;20480;-77
2023/04/08 05:24:48;;;;;;;1.50;1.10;;;8.70;98.20;;;;;;5004904;28;20843;-77
2023/04/08 05:27:14;;;;;;;1.60;1.30;;;8.70;98.20;;;;;;4986849;28;20487;-77
2023/04/08 05:29:41;;;;;;;1.50;1.20;;;8.70;98.20;;;;;;5006672;28;20475;-77
2023/04/08 05:32:08;;;;;;;1.53;1.20;;;8.70;98.20;;;;;;4980668;28;20476;-77
2023/04/08 05:34:35;;;;;;;1.53;1.20;;;8.70;98.20;;;;;;5004333;28;20471;-76
2023/04/08 05:37:01;;;;;;;1.53;1.20;;;8.70;98.20;;;;;;4988154;28;20508;-77
2023/04/08 05:39:28;;;;;;;1.60;1.20;;;8.70;98.20;;;;;;5004596;28;20467;-76
2023/04/08 05:41:56;;;;;;;1.50;1.10;;;8.60;98.20;;;;;;4994393;28;20742;-76
2023/04/08 05:44:23;;;;;;;1.50;1.10;;;8.60;98.20;;;;;;5006082;28;20491;-77
2023/04/08 05:46:50;;;;;;;1.60;1.27;;;8.60;98.20;;;;;;4987248;28;20494;-76
2023/04/08 05:49:17;;;;;;;1.80;1.60;;;8.60;98.20;;;;;;5000631;28;20471;-77
2023/04/08 05:51:43;;;;;;;1.50;1.20;;;8.60;98.20;;;;;;4995705;28;20495;-76
2023/04/08 05:54:10;;;;;;;1.57;1.20;;;8.60;98.20;;;;;;5008687;28;20456;-76
2023/04/08 05:56:37;;;;;;;1.60;1.20;;;8.60;98.20;;;;;;4994387;28;20489;-76
2023/04/08 05:59:05;;;;;;;1.60;1.20;;;8.60;98.20;;;;;;4991340;28;20471;-76
2023/04/08 06:01:32;;;;;;;1.60;1.20;;;8.60;98.20;;;;;;4975520;28;20500;-76
2023/04/08 06:03:58;;;;;;;1.53;1.10;;;8.60;98.20;;;;;;4981130;28;20497;-77
2023/04/08 06:06:25;;;;;;;1.57;1.20;;;8.60;98.20;;;;;;4978057;28;20480;-77
2023/04/08 06:08:52;;;;;;;1.57;1.20;;;8.60;98.20;;;;;;4993608;28;20464;-76
2023/04/08 06:11:19;;;;;;;1.60;1.30;;;8.70;98.20;;;;;;4992228;28;20486;-77
2023/04/08 06:13:45;;;;;;;1.53;1.10;;;8.70;98.20;;;;;;4990527;28;20475;-77
2023/04/08 06:16:15;;;;;;;1.50;1.20;;;8.80;98.20;;;;;;4994335;28;20944;-76
2023/04/08 06:18:42;;;;;;;3.83;1.83;;;8.80;98.20;;;;;;4990765;28;20868;-76
2023/04/08 06:21:10;;;;;;;1.50;1.10;;;8.90;98.20;;;;;;4998963;28;20571;-76
2023/04/08 06:23:37;;;;;;;1.53;1.10;;;9.10;98.20;;;;;;5004640;28;20484;-77
2023/04/08 06:26:04;;;;;;;1.50;1.10;;;9.20;98.20;;;;;;4997333;28;20475;-77
2023/04/08 06:28:30;;;;;;;1.60;1.30;;;9.40;98.20;;;;;;4999621;28;20974;-77
2023/04/08 06:30:57;;;;;;;1.57;1.13;;;9.60;98.20;;;;;;4995782;28;20480;-77
2023/04/08 06:33:25;;;;;;;1.50;1.10;;;9.80;98.20;;;;;;4995744;28;20848;-77
2023/04/08 06:36:01;;;;;;;1.50;1.10;;;9.90;98.20;;;;;;4987622;28;20484;-76
2023/04/08 06:38:27;;;;;;;1.53;1.10;;;10.00;98.20;;;;;;4997194;28;20455;-77
2023/04/08 06:40:55;;;;;;;1.53;1.10;;;10.20;98.20;;;;;;4994769;28;20471;-77
2023/04/08 06:43:22;;;;;;;1.53;1.10;;;10.40;98.20;;;;;;4984194;28;20484;-77
2023/04/08 06:45:49;;;;;;;1.50;1.20;;;10.50;98.20;;;;;;4996649;28;20460;-76
2023/04/08 06:48:16;;;;;;;1.50;1.00;;;10.60;98.20;;;;;;4998947;28;20468;-77
2023/04/08 06:50:44;;;;;;;1.53;1.10;;;10.70;98.20;;;;;;5004927;28;20482;-77
2023/04/08 06:53:11;;;;;;;1.50;1.10;;;10.90;98.20;;;;;;4974311;28;20491;-77
2023/04/08 06:55:37;;;;;;;1.50;1.07;;;11.10;98.20;;;;;;5006996;28;20464;-77
2023/04/08 06:58:04;;;;;;;1.50;1.00;;;11.30;98.20;;;;;;4990940;28;20505;-77
2023/04/08 07:00:31;;;;;;;1.57;1.10;;;11.50;98.20;;;;;;5007484;28;20460;-77
2023/04/08 07:02:57;;;;;;;1.57;1.10;;;11.60;98.20;;;;;;4967392;28;20492;-77
2023/04/08 07:05:24;;;;;;;1.50;1.00;;;11.60;98.20;;;;;;4986728;28;20567;-77
2023/04/08 07:07:52;;;;;;;1.53;1.00;;;11.60;98.20;;;;;;4971541;28;20544;-76
2023/04/08 07:10:19;;;;;;;1.60;1.30;;;11.50;98.20;;;;;;5005777;28;20542;-77
2023/04/08 07:12:46;;;;;;;1.53;1.00;;;11.50;98.20;;;;;;4983332;28;20497;-77
2023/04/08 07:15:13;;;;;;;1.50;1.00;;;11.40;98.20;;;;;;5004790;28;20574;-77
2023/04/08 07:17:40;;;;;;;1.53;1.13;;;11.50;98.20;;;;;;4990361;28;20495;-77
2023/04/08 07:20:07;;;;;;;1.53;1.10;;;11.50;98.20;;;;;;5004214;28;20453;-77
2023/04/08 07:22:34;;;;;;;1.60;1.20;;;11.50;98.20;;;;;;4995316;28;20583;-77
2023/04/08 07:25:03;;;;;;;1.60;1.10;;;11.50;98.20;;;;;;5005033;28;20498;-77
2023/04/08 07:27:29;;;;;;;1.50;1.00;;;11.60;98.20;;;;;;4990573;28;21085;-77
2023/04/08 07:29:56;;;;;;;1.60;1.10;;;11.50;98.20;;;;;;5003614;28;20495;-77
2023/04/08 07:32:23;;;;;;;1.60;1.20;;;11.40;98.20;;;;;;4991495;28;20488;-77
2023/04/08 07:34:50;;;;;;;1.50;1.00;;;11.30;98.20;;;;;;4987716;28;20560;-77
2023/04/08 07:37:17;;;;;;;1.50;1.10;;;11.30;98.20;;;;;;4980606;28;20917;-78
2023/04/08 07:39:44;;;;;;;1.50;1.00;;;11.30;98.20;;;;;;4988807;28;20470;-77
2023/04/08 07:42:12;;;;;;;1.53;1.00;;;11.30;98.20;;;;;;4970529;28;20995;-77
2023/04/08 07:44:39;;;;;;;1.50;1.00;;;11.30;98.20;;;;;;4984455;28;20519;-77
2023/04/08 07:47:06;;;;;;;1.57;1.20;;;11.30;98.20;;;;;;4971091;28;21009;-76
2023/04/08 07:49:33;;;;;;;1.50;1.00;;;11.30;98.20;;;;;;4982446;28;20612;-77
2023/04/08 07:52:00;;;;;;;1.50;1.10;;;11.30;98.20;;;;;;4978869;28;20481;-77
2023/04/08 07:54:26;;;;;;;1.50;1.10;;;11.30;98.20;;;;;;4990975;28;20476;-77
2023/04/08 07:56:53;;;;;;;1.50;1.00;;;11.30;98.20;;;;;;4978754;28;20481;-77
2023/04/08 07:59:21;;;;;;;1.50;1.20;;;11.40;98.20;;;;;;4988113;28;20472;-77
2023/04/08 08:01:48;;;;;;;1.50;1.10;;;11.40;98.20;;;;;;4976732;28;20493;-77
2023/04/08 08:04:15;;;;;;;1.50;1.00;;;11.50;98.20;;;;;;4986068;28;20573;-77
2023/04/08 08:06:42;;;;;;;1.50;1.10;;;11.40;98.20;;;;;;4975863;28;20674;-77
2023/04/08 08:09:08;;;;;;;1.50;1.10;;;11.40;98.20;;;;;;4987614;28;20461;-77
2023/04/08 08:11:35;;;;;;;1.50;1.10;;;11.40;98.20;;;;;;4976539;28;20488;-77
2023/04/08 08:14:03;;;;;;;1.53;1.10;;;11.40;98.20;;;;;;5000617;28;20487;-77
2023/04/08 08:16:32;;;;;;;1.50;1.10;;;11.50;98.20;;;;;;4983430;28;21008;-77
2023/04/08 08:18:59;;;;;;;1.50;1.10;;;11.60;98.20;;;;;;4985978;28;20476;-77
2023/04/08 08:21:26;;;;;;;1.50;1.00;;;11.60;98.20;;;;;;4988569;28;20524;-77
2023/04/08 08:23:55;;;;;;;1.50;1.00;;;11.80;98.20;;;;;;4993220;28;20480;-77
2023/04/08 08:26:22;;;;;;;1.53;1.10;;;11.90;98.20;;;;;;4997136;28;20476;-77
2023/04/08 08:28:49;;;;;;;1.50;1.10;;;12.00;98.20;;;;;;5000263;28;21476;-77
2023/04/08 08:31:16;;;;;;;1.50;1.10;;;12.10;98.20;;;;;;4990199;28;20492;-77
2023/04/08 08:33:44;;;;;;;1.50;1.00;;;12.10;98.20;;;;;;4991842;28;20451;-77
2023/04/08 08:36:11;;;;;;;1.50;1.00;;;12.00;98.20;;;;;;4994793;28;20480;-77
2023/04/08 08:38:38;;;;;;;1.50;1.10;;;12.00;98.20;;;;;;5002488;28;20482;-77
2023/04/08 08:41:05;;;;;;;1.50;0.90;;;11.90;98.20;;;;;;4996784;28;20469;-77
2023/04/08 08:43:33;;;;;;;1.50;1.00;;;11.90;98.20;;;;;;4992486;28;20483;-77
2023/04/08 08:46:00;;;;;;;1.50;1.10;;;11.80;98.20;;;;;;4997778;28;20954;-77
2023/04/08 08:48:27;;;;;;;1.50;1.10;;;11.80;98.20;;;;;;4998250;28;20471;-77
2023/04/08 08:50:55;;;;;;;1.50;1.00;;;11.80;98.20;;;;;;4994556;28;20472;-78
2023/04/08 08:53:29;;;;;;;1.50;1.00;;;11.90;98.20;;;;;;4993187;28;20467;-77
2023/04/08 08:55:56;;;;;;;1.50;1.00;;;11.90;98.20;;;;;;4990704;28;20500;-78
2023/04/08 08:58:26;;;;;;;1.60;1.20;;;11.90;98.20;;;;;;4985747;28;20924;-77
2023/04/08 09:00:53;;;;;;;1.50;1.00;;;11.80;98.20;;;;;;4996681;28;20466;-78
2023/04/08 09:03:22;;;;;;;2.23;2.03;;;11.90;98.20;;;;;;5000499;28;20463;-78
2023/04/08 09:05:50;;;;;;;1.50;1.00;;;11.90;98.20;;;;;;4996574;28;20499;-77
2023/04/08 09:08:29;;;;;;;1.50;1.00;;;11.80;98.20;;;;;;4993255;28;20465;-77
2023/04/08 09:10:57;;;;;;;1.70;1.40;;;11.80;98.20;;;;;;4977808;28;21014;-77
2023/04/08 09:13:24;;;;;;;1.50;1.00;;;12.00;98.20;;;;;;4993035;28;20473;-78
2023/04/08 09:16:06;;;;;;;1.60;1.20;;;12.00;98.20;;;;;;4976510;28;21022;-74
2023/04/08 09:18:33;;;;;;;1.50;1.00;;;12.10;98.20;;;;;;4976571;28;21153;-75
2023/04/08 09:21:01;;;;;;;1.50;1.10;;;12.10;98.20;;;;;;4974867;28;20496;-76
2023/04/08 09:23:44;;;;;;;1.53;1.10;;;12.10;98.20;;;;;;4979276;28;20497;-75
2023/04/08 09:26:13;;;;;;;1.50;1.00;;;12.20;98.20;;;;;;4973757;28;20927;-75
2023/04/08 09:28:41;;;;;;;1.50;1.00;;;12.10;98.20;;;;;;4980960;28;20710;-75
2023/04/08 09:31:22;;;;;;;1.50;1.10;;;12.10;98.20;;;;;;4973088;28;20557;-75
2023/04/08 09:33:50;;;;;;;1.50;1.00;;;12.10;98.20;;;;;;4982193;28;20471;-75
2023/04/08 09:36:17;;;;;;;1.50;1.10;;;12.10;98.20;;;;;;4990590;28;20480;-76
2023/04/08 09:38:46;;;;;;;1.50;1.00;;;12.10;98.20;;;;;;4997785;28;20464;-75
2023/04/08 09:41:15;;;;;;;1.50;1.00;;;12.00;98.20;;;;;;4989822;28;20476;-77
2023/04/08 09:43:47;;;;;;;1.50;1.00;;;12.00;98.20;;;;;;4993788;28;20468;-77
2023/04/08 09:46:17;;;;;;;1.50;1.00;;;12.00;98.20;;;;;;4984729;28;20562;-77
2023/04/08 09:48:50;;;;;;;1.50;1.10;;;12.00;98.20;;;;;;4985882;28;20994;-77
2023/04/08 09:51:20;;;;;;;1.50;1.00;;;11.90;98.20;;;;;;4987697;28;20488;-75
2023/04/08 09:53:53;;;;;;;1.50;1.00;;;12.00;98.20;;;;;;4987206;28;20471;-77
2023/04/08 09:56:21;;;;;;;1.50;0.90;;;12.10;98.20;;;;;;4987067;28;20479;-77
2023/04/08 09:58:54;;;;;;;1.50;1.00;;;12.10;98.20;;;;;;4999507;28;21265;-77
2023/04/08 10:01:28;;;;;;;1.50;1.00;;;12.20;98.20;;;;;;4988058;28;20491;-75
2023/04/08 10:03:57;;;;;;;1.50;1.03;;;12.30;98.20;;;;;;4998162;28;20466;-77
2023/04/08 10:06:30;;;;;;;1.50;1.00;;;12.30;98.20;;;;;;4989116;28;20838;-77
2023/04/08 10:08:58;;;;;;;1.50;1.00;;;12.40;98.20;;;;;;5000336;28;20500;-75
2023/04/08 10:11:25;;;;;;;1.50;1.10;;;12.50;98.20;;;;;;4989024;28;20477;-74
2023/04/08 10:13:53;;;;;;;1.50;1.00;;;12.50;98.20;;;;;;4997719;28;20464;-75
2023/04/08 10:16:21;;;;;;;1.60;1.10;;;12.50;98.20;;;;;;4984251;28;20536;-75
2023/04/08 10:18:51;;;;;;;1.70;1.40;;;12.50;98.20;;;;;;4983533;28;20459;-75
2023/04/08 10:21:38;;;;;;;1.50;1.00;;;12.50;98.20;;;;;;4980408;28;21104;-74
2023/04/08 10:24:10;;;;;;;1.50;1.00;;;12.50;98.20;;;;;;4969770;28;20489;-75
2023/04/08 10:26:40;;;;;;;1.70;1.30;;;12.50;98.20;;;;;;4969843;28;20571;-74
2023/04/08 10:29:45;;;;;;;1.50;1.00;;;12.60;98.20;;;;;;4980703;28;20841;-77
2023/04/08 10:32:30;;;;;;;1.50;1.10;;;12.40;98.20;;;;;;4965152;28;20535;-77
2023/04/08 10:34:56;;;;;;;1.60;1.30;;;12.20;98.20;;;;;;4979761;28;20780;-77
2023/04/08 10:37:23;;;;;;;1.50;1.17;;;12.30;98.20;;;;;;4954463;28;21028;-77
2023/04/08 10:39:54;;;;;;;1.50;1.00;;;12.30;98.20;;;;;;4978631;28;20469;-77
2023/04/08 10:42:27;;;;;;;1.50;1.10;;;12.40;98.20;;;;;;4953226;28;20962;-75
2023/04/08 10:44:54;;;;;;;1.50;1.10;;;12.40;98.20;;;;;;4977098;28;20504;-74
2023/04/08 10:47:26;;;;;;;1.50;1.00;;;12.40;98.20;;;;;;4964366;28;20497;-75
2023/04/08 10:49:52;;;;;;;1.50;1.00;;;12.40;98.20;;;;;;4980113;28;20561;-74
2023/04/08 10:52:20;;;;;;;1.50;1.03;;;12.30;98.20;;;;;;4962188;28;20504;-74
2023/04/08 10:54:48;;;;;;;2.47;2.27;;;12.40;98.20;;;;;;4979583;28;20485;-74
2023/04/08 10:57:23;;;;;;;1.50;1.00;;;12.40;98.20;;;;;;4958552;28;21040;-76
2023/04/08 10:59:50;;;;;;;1.50;1.03;;;12.50;98.20;;;;;;4978960;28;20460;-76
2023/04/08 11:02:17;;;;;;;1.50;1.20;;;12.60;98.20;;;;;;4968259;28;21034;-76
2023/04/08 11:04:47;;;;;;;1.50;1.00;;;12.80;98.20;;;;;;4982882;28;20503;-76
2023/04/08 11:07:14;;;;;;;1.50;1.10;;;12.80;98.20;;;;;;4984466;28;20483;-76
2023/04/08 11:09:42;;;;;;;1.50;1.00;;;12.90;98.20;;;;;;4995599;28;20482;-76
2023/04/08 11:12:09;;;;;;;3.90;1.63;;;12.90;98.20;;;;;;4972293;28;21251;-76
2023/04/08 11:14:40;;;;;;;1.50;1.00;;;12.90;98.20;;;;;;4992768;28;20460;-76
2023/04/08 11:17:07;;;;;;;1.50;0.97;;;12.90;98.20;;;;;;4976911;28;20584;-75
2023/04/08 11:19:36;;;;;;;1.50;1.20;;;13.00;98.20;;;;;;4977058;28;20492;-76
2023/04/08 11:22:02;;;;;;;1.50;1.20;;;13.10;98.20;;;;;;4965561;28;20612;-76
2023/04/08 11:24:29;;;;;;;1.50;1.00;;;13.20;98.20;;;;;;4976428;28;20564;-76
2023/04/08 11:26:56;;;;;;;1.57;1.10;;;13.30;98.20;;;;;;4973090;28;20574;-76
2023/04/08 11:29:23;;;;;;;3.60;3.00;;;13.40;98.20;;;;;;4980280;28;20488;-76
2023/04/08 11:31:51;;;;;;;1.60;1.20;;;13.60;98.20;;;;;;4968729;28;20493;-76
2023/04/08 11:34:23;;;;;;;1.50;1.00;;;13.80;98.20;;;;;;4978550;28;20549;-76
2023/04/08 11:36:50;;;;;;;1.60;1.10;;;14.10;98.20;;;;;;4963507;28;21018;-76
2023/04/08 11:39:17;;;;;;;1.50;0.90;;;14.30;98.20;;;;;;4975316;28;20471;-75
2023/04/08 11:41:44;;;;;;;1.57;0.97;;;14.40;98.20;;;;;;4964989;28;21139;-76
2023/04/08 11:44:11;;;;;;;1.50;0.90;;;14.50;98.20;;;;;;4977658;28;20476;-76
2023/04/08 11:46:39;;;;;;;1.50;1.00;;;14.60;98.20;;;;;;4973354;28;20638;-76
2023/04/08 11:49:09;;;;;;;1.50;1.00;;;14.40;98.20;;;;;;4996522;28;20475;-76
2023/04/08 11:51:53;;;;;;;2.67;2.07;;;14.30;98.20;;;;;;4979401;28;20486;-76
2023/04/08 11:54:27;;;;;;;1.50;0.90;;;14.20;98.20;;;;;;4989500;28;20701;-75
2023/04/08 11:56:54;;;;;;;1.53;1.00;;;14.00;98.20;;;;;;4984154;28;20857;-75
2023/04/08 11:59:21;;;;;;;1.50;1.00;;;14.00;98.20;;;;;;4992462;28;20480;-75
2023/04/08 12:01:48;;;;;;;1.50;0.90;;;14.00;98.20;;;;;;4980490;28;20481;-75
2023/04/08 12:04:16;;;;;;;1.50;1.00;;;14.00;98.20;;;;;;4985917;28;20522;-76
2023/04/08 12:06:45;;;;;;;1.50;1.00;;;14.00;98.20;;;;;;4979813;28;20990;-76
2023/04/08 12:09:12;;;;;;;1.70;1.57;;;13.90;98.20;;;;;;4981497;28;20465;-75
2023/04/08 12:11:39;;;;;;;1.53;1.00;;;13.80;98.20;;;;;;4963238;28;20500;-76
2023/04/08 12:14:06;;;;;;;1.50;1.00;;;13.80;98.20;;;;;;4968179;28;20580;-75
2023/04/08 12:16:32;;;;;;;1.50;1.00;;;13.90;98.20;;;;;;4969480;28;20488;-75
2023/04/08 12:18:59;;;;;;;1.50;0.90;;;13.90;98.20;;;;;;4999400;28;20475;-75
2023/04/08 12:21:27;;;;;;;1.50;1.00;;;14.00;98.20;;;;;;4987538;28;20652;-75
2023/04/08 12:23:54;;;;;;;1.50;0.90;;;14.00;98.20;;;;;;4995078;28;20464;-76
2023/04/08 12:26:21;;;;;;;1.50;0.90;;;14.00;98.20;;;;;;4983172;28;20485;-75
2023/04/08 12:28:47;;;;;;;1.50;0.90;;;14.10;98.20;;;;;;4981883;28;20456;-75
2023/04/08 12:31:14;;;;;;;2.23;2.03;;;14.00;98.20;;;;;;4988238;28;20480;-75
2023/04/08 12:33:41;;;;;;;3.00;1.80;;;13.90;98.20;;;;;;4994986;28;20474;-76
2023/04/08 12:36:08;;;;;;;1.50;1.00;;;14.00;98.20;;;;;;4985127;28;20917;-75
2023/04/08 12:38:37;;;;;;;1.50;1.00;;;13.90;98.20;;;;;;4981396;28;20526;-75
2023/04/08 12:41:04;;;;;;;1.50;1.00;;;13.90;98.20;;;;;;4988370;28;20503;-75
2023/04/08 12:43:31;;;;;;;1.50;1.00;;;13.90;98.20;;;;;;4991590;28;20518;-75
2023/04/08 12:45:58;;;;;;;1.50;1.00;;;13.90;98.20;;;;;;4987873;28;20499;-75
2023/04/08 12:48:25;;;;;;;1.50;1.10;;;13.80;98.20;;;;;;4991602;28;21306;-75
2023/04/08 12:50:52;;;;;;;1.50;0.90;;;13.80;98.20;;;;;;4988518;28;20471;-75
2023/04/08 12:53:19;;;;;;;1.50;1.10;;;13.80;98.20;;;;;;4996385;28;20966;-75
2023/04/08 12:55:47;;;;;;;1.50;1.00;;;13.70;98.20;;;;;;4999896;28;20472;-75
2023/04/08 12:58:15;;;;;;;1.50;1.10;;;13.60;98.20;;;;;;4975201;28;20508;-75
2023/04/08 13:00:45;;;;;;;1.50;1.10;;;13.50;97.70;;;;;;4998448;28;20482;-76